sensor_id;sensor_type;location;lat;lon;timestamp;temperature;humidity
68648;SHT31;55632;51.962;16.116;2023-06-22T00:02:59;19.92;73.57
68648;SHT31;55632;51.962;16.116;2023-06-22T00:08:03;19.82;73.88
68648;SHT31;55632;51.962;16.116;2023-06-22T00:13:08;19.75;74.52
68648;SHT31;55632;51.962;16.116;2023-06-22T00:18:10;19.64;74.74
68648;SHT31;55632;51.962;16.116;2023-06-22T00:23:11;19.50;74.67
68648;SHT31;55632;51.962;16.116;2023-06-22T00:28:12;19.40;75.01
68648;SHT31;55632;51.962;16.116;2023-06-22T00:33:13;19.33;75.16
68648;SHT31;55632;51.962;16.116;2023-06-22T00:38:15;19.29;75.46
68648;SHT31;55632;51.962;16.116;2023-06-22T00:43:16;19.20;75.93
68648;SHT31;55632;51.962;16.116;2023-06-22T00:48:17;19.15;76.10
68648;SHT31;55632;51.962;16.116;2023-06-22T00:53:18;19.08;76.24
68648;SHT31;55632;51.962;16.116;2023-06-22T00:58:19;19.01;76.24
68648;SHT31;55632;51.962;16.116;2023-06-22T01:03:23;18.94;76.49
68648;SHT31;55632;51.962;16.116;2023-06-22T01:08:31;18.81;76.45
68648;SHT31;55632;51.962;16.116;2023-06-22T01:13:55;18.77;77.00
68648;SHT31;55632;51.962;16.116;2023-06-22T01:19:09;18.64;77.20
68648;SHT31;55632;51.962;16.116;2023-06-22T01:24:31;18.54;77.91
68648;SHT31;55632;51.962;16.116;2023-06-22T01:29:33;18.54;78.27
68648;SHT31;55632;51.962;16.116;2023-06-22T01:34:36;18.52;78.30
68648;SHT31;55632;51.962;16.116;2023-06-22T01:39:38;18.46;77.98
68648;SHT31;55632;51.962;16.116;2023-06-22T01:44:40;18.37;77.47
68648;SHT31;55632;51.962;16.116;2023-06-22T01:49:43;18.28;77.22
68648;SHT31;55632;51.962;16.116;2023-06-22T01:54:44;18.18;77.37
68648;SHT31;55632;51.962;16.116;2023-06-22T02:00:20;18.09;77.67
68648;SHT31;55632;51.962;16.116;2023-06-22T02:05:26;18.05;77.69
68648;SHT31;55632;51.962;16.116;2023-06-22T02:10:29;18.00;78.02
68648;SHT31;55632;51.962;16.116;2023-06-22T02:15:32;17.94;77.98
68648;SHT31;55632;51.962;16.116;2023-06-22T02:20:36;17.91;78.46
68648;SHT31;55632;51.962;16.116;2023-06-22T02:25:37;17.84;78.20
68648;SHT31;55632;51.962;16.116;2023-06-22T02:30:38;17.78;78.63
68648;SHT31;55632;51.962;16.116;2023-06-22T02:35:41;17.77;79.06
68648;SHT31;55632;51.962;16.116;2023-06-22T02:40:49;17.74;79.46
68648;SHT31;55632;51.962;16.116;2023-06-22T02:45:51;17.73;79.88
68648;SHT31;55632;51.962;16.116;2023-06-22T02:50:52;17.73;79.74
68648;SHT31;55632;51.962;16.116;2023-06-22T02:55:55;17.71;79.30
68648;SHT31;55632;51.962;16.116;2023-06-22T03:00:56;17.69;78.65
68648;SHT31;55632;51.962;16.116;2023-06-22T03:05:56;17.65;78.32
68648;SHT31;55632;51.962;16.116;2023-06-22T03:10:58;17.67;78.55
68648;SHT31;55632;51.962;16.116;2023-06-22T03:15:59;17.70;79.25
68648;SHT31;55632;51.962;16.116;2023-06-22T03:21:00;17.77;80.17
68648;SHT31;55632;51.962;16.116;2023-06-22T03:26:02;17.85;81.00
68648;SHT31;55632;51.962;16.116;2023-06-22T03:31:04;18.01;81.44
68648;SHT31;55632;51.962;16.116;2023-06-22T03:36:07;18.21;81.72
68648;SHT31;55632;51.962;16.116;2023-06-22T03:41:09;18.36;81.40
68648;SHT31;55632;51.962;16.116;2023-06-22T03:46:10;18.53;80.52
68648;SHT31;55632;51.962;16.116;2023-06-22T03:51:11;18.68;80.09
68648;SHT31;55632;51.962;16.116;2023-06-22T03:56:12;18.97;79.67
68648;SHT31;55632;51.962;16.116;2023-06-22T04:01:13;19.33;79.40
68648;SHT31;55632;51.962;16.116;2023-06-22T04:06:14;19.78;78.99
68648;SHT31;55632;51.962;16.116;2023-06-22T04:11:14;20.22;78.50
68648;SHT31;55632;51.962;16.116;2023-06-22T04:16:15;20.70;77.58
68648;SHT31;55632;51.962;16.116;2023-06-22T04:21:16;21.15;77.02
68648;SHT31;55632;51.962;16.116;2023-06-22T04:26:17;21.62;76.48
68648;SHT31;55632;51.962;16.116;2023-06-22T04:31:19;22.08;76.25
68648;SHT31;55632;51.962;16.116;2023-06-22T04:36:19;22.50;75.93
68648;SHT31;55632;51.962;16.116;2023-06-22T04:41:21;22.79;75.20
68648;SHT31;55632;51.962;16.116;2023-06-22T04:46:24;23.03;74.94
68648;SHT31;55632;51.962;16.116;2023-06-22T04:51:25;23.30;74.36
68648;SHT31;55632;51.962;16.116;2023-06-22T04:56:30;23.51;73.96
68648;SHT31;55632;51.962;16.116;2023-06-22T05:01:31;23.85;73.26
68648;SHT31;55632;51.962;16.116;2023-06-22T05:06:32;24.14;72.54
68648;SHT31;55632;51.962;16.116;2023-06-22T05:11:33;24.31;71.91
68648;SHT31;55632;51.962;16.116;2023-06-22T05:16:33;24.60;71.32
68648;SHT31;55632;51.962;16.116;2023-06-22T05:21:34;24.76;70.53
68648;SHT31;55632;51.962;16.116;2023-06-22T05:26:35;24.99;70.07
68648;SHT31;55632;51.962;16.116;2023-06-22T05:31:36;25.23;69.24
68648;SHT31;55632;51.962;16.116;2023-06-22T05:36:37;25.45;67.86
68648;SHT31;55632;51.962;16.116;2023-06-22T05:41:38;25.61;66.65
68648;SHT31;55632;51.962;16.116;2023-06-22T05:46:43;25.85;65.10
68648;SHT31;55632;51.962;16.116;2023-06-22T05:51:49;26.06;63.99
68648;SHT31;55632;51.962;16.116;2023-06-22T05:56:49;26.24;62.91
68648;SHT31;55632;51.962;16.116;2023-06-22T06:01:50;26.43;61.41
68648;SHT31;55632;51.962;16.116;2023-06-22T06:06:51;26.51;60.70
68648;SHT31;55632;51.962;16.116;2023-06-22T06:11:52;26.59;59.91
68648;SHT31;55632;51.962;16.116;2023-06-22T06:16:52;26.69;59.24
68648;SHT31;55632;51.962;16.116;2023-06-22T06:21:53;26.75;59.26
68648;SHT31;55632;51.962;16.116;2023-06-22T06:26:57;26.97;58.83
68648;SHT31;55632;51.962;16.116;2023-06-22T06:32:03;27.11;58.65
68648;SHT31;55632;51.962;16.116;2023-06-22T06:37:04;27.26;58.35
68648;SHT31;55632;51.962;16.116;2023-06-22T06:42:07;27.38;57.83
68648;SHT31;55632;51.962;16.116;2023-06-22T06:47:16;27.61;58.21
68648;SHT31;55632;51.962;16.116;2023-06-22T06:52:17;28.01;57.43
68648;SHT31;55632;51.962;16.116;2023-06-22T06:57:20;28.35;56.51
68648;SHT31;55632;51.962;16.116;2023-06-22T07:02:21;28.65;55.31
68648;SHT31;55632;51.962;16.116;2023-06-22T07:07:24;28.80;54.59
68648;SHT31;55632;51.962;16.116;2023-06-22T07:12:25;28.83;53.30
68648;SHT31;55632;51.962;16.116;2023-06-22T07:17:26;28.92;53.54
68648;SHT31;55632;51.962;16.116;2023-06-22T07:22:26;29.10;53.03
68648;SHT31;55632;51.962;16.116;2023-06-22T07:27:27;29.28;52.16
68648;SHT31;55632;51.962;16.116;2023-06-22T07:32:28;29.39;52.25
68648;SHT31;55632;51.962;16.116;2023-06-22T07:37:31;29.70;51.40
68648;SHT31;55632;51.962;16.116;2023-06-22T07:42:33;29.96;50.87
68648;SHT31;55632;51.962;16.116;2023-06-22T07:47:34;30.16;49.71
68648;SHT31;55632;51.962;16.116;2023-06-22T07:52:43;30.18;49.15
68648;SHT31;55632;51.962;16.116;2023-06-22T07:57:56;30.13;48.80
68648;SHT31;55632;51.962;16.116;2023-06-22T08:02:57;30.23;48.07
68648;SHT31;55632;51.962;16.116;2023-06-22T08:08:00;30.25;47.12
68648;SHT31;55632;51.962;16.116;2023-06-22T08:13:01;30.31;46.19
68648;SHT31;55632;51.962;16.116;2023-06-22T08:18:01;30.41;45.79
68648;SHT31;55632;51.962;16.116;2023-06-22T08:23:02;30.49;44.40
68648;SHT31;55632;51.962;16.116;2023-06-22T08:28:09;30.49;43.10
68648;SHT31;55632;51.962;16.116;2023-06-22T08:33:12;30.45;42.86
68648;SHT31;55632;51.962;16.116;2023-06-22T08:38:13;30.39;42.56
68648;SHT31;55632;51.962;16.116;2023-06-22T08:43:16;30.43;41.09
68648;SHT31;55632;51.962;16.116;2023-06-22T08:48:17;30.41;41.22
68648;SHT31;55632;51.962;16.116;2023-06-22T08:53:21;30.62;40.54
68648;SHT31;55632;51.962;16.116;2023-06-22T08:58:21;30.72;39.27
68648;SHT31;55632;51.962;16.116;2023-06-22T09:03:27;30.95;39.86
68648;SHT31;55632;51.962;16.116;2023-06-22T09:08:34;31.14;39.09
68648;SHT31;55632;51.962;16.116;2023-06-22T09:13:35;31.24;37.43
68648;SHT31;55632;51.962;16.116;2023-06-22T09:18:42;31.17;36.75
68648;SHT31;55632;51.962;16.116;2023-06-22T09:23:43;31.21;36.64
68648;SHT31;55632;51.962;16.116;2023-06-22T09:28:44;30.98;36.77
68648;SHT31;55632;51.962;16.116;2023-06-22T09:33:45;30.91;36.67
68648;SHT31;55632;51.962;16.116;2023-06-22T09:38:50;30.88;36.87
68648;SHT31;55632;51.962;16.116;2023-06-22T09:43:55;30.91;36.30
68648;SHT31;55632;51.962;16.116;2023-06-22T09:48:56;30.88;35.96
68648;SHT31;55632;51.962;16.116;2023-06-22T09:53:57;30.90;35.84
68648;SHT31;55632;51.962;16.116;2023-06-22T09:58:58;30.91;35.62
68648;SHT31;55632;51.962;16.116;2023-06-22T10:03:59;31.10;36.17
68648;SHT31;55632;51.962;16.116;2023-06-22T10:09:00;31.17;36.09
68648;SHT31;55632;51.962;16.116;2023-06-22T10:14:06;31.32;35.59
68648;SHT31;55632;51.962;16.116;2023-06-22T10:19:07;31.32;35.64
68648;SHT31;55632;51.962;16.116;2023-06-22T10:24:07;31.43;34.87
68648;SHT31;55632;51.962;16.116;2023-06-22T10:29:09;31.28;34.28
68648;SHT31;55632;51.962;16.116;2023-06-22T10:34:12;31.20;34.25
68648;SHT31;55632;51.962;16.116;2023-06-22T10:39:13;31.29;34.13
68648;SHT31;55632;51.962;16.116;2023-06-22T10:44:14;31.27;33.43
68648;SHT31;55632;51.962;16.116;2023-06-22T10:49:15;31.20;33.27
68648;SHT31;55632;51.962;16.116;2023-06-22T10:54:18;31.12;33.13
68648;SHT31;55632;51.962;16.116;2023-06-22T10:59:21;31.11;32.67
68648;SHT31;55632;51.962;16.116;2023-06-22T11:04:24;30.86;32.94
68648;SHT31;55632;51.962;16.116;2023-06-22T11:09:28;30.79;33.18
68648;SHT31;55632;51.962;16.116;2023-06-22T11:14:29;30.93;32.91
68648;SHT31;55632;51.962;16.116;2023-06-22T11:19:30;31.04;33.26
68648;SHT31;55632;51.962;16.116;2023-06-22T11:24:34;31.27;34.00
68648;SHT31;55632;51.962;16.116;2023-06-22T11:29:37;31.52;33.60
68648;SHT31;55632;51.962;16.116;2023-06-22T11:34:41;31.65;32.89
68648;SHT31;55632;51.962;16.116;2023-06-22T11:39:42;31.65;33.52
68648;SHT31;55632;51.962;16.116;2023-06-22T11:44:44;31.69;33.13
68648;SHT31;55632;51.962;16.116;2023-06-22T11:49:45;31.45;33.34
68648;SHT31;55632;51.962;16.116;2023-06-22T11:54:47;31.18;33.56
68648;SHT31;55632;51.962;16.116;2023-06-22T11:59:50;31.08;33.86
68648;SHT31;55632;51.962;16.116;2023-06-22T12:04:50;30.98;34.29
68648;SHT31;55632;51.962;16.116;2023-06-22T12:09:53;31.01;34.14
68648;SHT31;55632;51.962;16.116;2023-06-22T12:14:53;31.06;34.20
68648;SHT31;55632;51.962;16.116;2023-06-22T12:19:54;31.25;33.83
68648;SHT31;55632;51.962;16.116;2023-06-22T12:24:55;31.49;33.25
68648;SHT31;55632;51.962;16.116;2023-06-22T12:29:59;31.59;32.84
68648;SHT31;55632;51.962;16.116;2023-06-22T12:35:07;31.65;32.76
68648;SHT31;55632;51.962;16.116;2023-06-22T12:40:12;31.81;32.68
68648;SHT31;55632;51.962;16.116;2023-06-22T12:45:16;32.06;32.34
68648;SHT31;55632;51.962;16.116;2023-06-22T12:50:17;31.94;32.18
68648;SHT31;55632;51.962;16.116;2023-06-22T12:55:17;31.87;32.09
68648;SHT31;55632;51.962;16.116;2023-06-22T13:00:19;31.98;32.40
68648;SHT31;55632;51.962;16.116;2023-06-22T13:05:20;32.11;31.81
68648;SHT31;55632;51.962;16.116;2023-06-22T13:10:24;32.13;31.64
68648;SHT31;55632;51.962;16.116;2023-06-22T13:15:24;32.01;31.75
68648;SHT31;55632;51.962;16.116;2023-06-22T13:20:25;31.86;31.98
68648;SHT31;55632;51.962;16.116;2023-06-22T13:25:26;31.80;31.90
68648;SHT31;55632;51.962;16.116;2023-06-22T13:30:27;31.77;32.56
68648;SHT31;55632;51.962;16.116;2023-06-22T13:35:28;31.74;32.28
68648;SHT31;55632;51.962;16.116;2023-06-22T13:40:32;31.74;32.66
68648;SHT31;55632;51.962;16.116;2023-06-22T13:45:35;31.81;32.50
68648;SHT31;55632;51.962;16.116;2023-06-22T13:50:38;31.81;32.26
68648;SHT31;55632;51.962;16.116;2023-06-22T13:55:39;31.83;32.67
68648;SHT31;55632;51.962;16.116;2023-06-22T14:00:40;31.90;32.34
68648;SHT31;55632;51.962;16.116;2023-06-22T14:05:42;31.80;32.28
68648;SHT31;55632;51.962;16.116;2023-06-22T14:10:51;31.73;32.69
68648;SHT31;55632;51.962;16.116;2023-06-22T14:15:54;31.70;32.72
68648;SHT31;55632;51.962;16.116;2023-06-22T14:20:55;31.62;32.93
68648;SHT31;55632;51.962;16.116;2023-06-22T14:25:59;31.41;33.28
68648;SHT31;55632;51.962;16.116;2023-06-22T14:30:59;31.29;33.43
68648;SHT31;55632;51.962;16.116;2023-06-22T14:36:05;31.24;33.54
68648;SHT31;55632;51.962;16.116;2023-06-22T14:41:10;31.28;33.92
68648;SHT31;55632;51.962;16.116;2023-06-22T14:46:11;31.28;33.54
68648;SHT31;55632;51.962;16.116;2023-06-22T14:51:15;31.24;34.11
68648;SHT31;55632;51.962;16.116;2023-06-22T14:56:16;31.27;34.40
68648;SHT31;55632;51.962;16.116;2023-06-22T15:01:17;31.22;34.26
68648;SHT31;55632;51.962;16.116;2023-06-22T15:06:18;31.17;33.92
68648;SHT31;55632;51.962;16.116;2023-06-22T15:11:20;31.10;34.32
68648;SHT31;55632;51.962;16.116;2023-06-22T15:16:20;31.21;34.81
68648;SHT31;55632;51.962;16.116;2023-06-22T15:21:21;31.35;34.26
68648;SHT31;55632;51.962;16.116;2023-06-22T15:26:25;31.42;33.76
68648;SHT31;55632;51.962;16.116;2023-06-22T15:31:27;31.48;34.24
68648;SHT31;55632;51.962;16.116;2023-06-22T15:36:28;31.59;34.28
68648;SHT31;55632;51.962;16.116;2023-06-22T15:41:29;31.61;34.12
68648;SHT31;55632;51.962;16.116;2023-06-22T15:46:30;31.63;34.24
68648;SHT31;55632;51.962;16.116;2023-06-22T20:04:02;25.03;46.16
68648;SHT31;55632;51.962;16.116;2023-06-22T20:09:05;24.90;46.51
68648;SHT31;55632;51.962;16.116;2023-06-22T20:14:06;24.82;46.97
68648;SHT31;55632;51.962;16.116;2023-06-22T20:19:11;24.72;47.38
68648;SHT31;55632;51.962;16.116;2023-06-22T20:24:14;24.67;47.97
68648;SHT31;55632;51.962;16.116;2023-06-22T20:29:24;24.55;48.47
68648;SHT31;55632;51.962;16.116;2023-06-22T20:34:26;24.44;49.03
68648;SHT31;55632;51.962;16.116;2023-06-22T20:39:27;24.31;49.51
68648;SHT31;55632;51.962;16.116;2023-06-22T20:44:28;24.24;50.03
68648;SHT31;55632;51.962;16.116;2023-06-22T20:49:28;24.14;50.55
68648;SHT31;55632;51.962;16.116;2023-06-22T20:54:29;24.09;51.02
68648;SHT31;55632;51.962;16.116;2023-06-22T20:59:30;24.06;51.60
68648;SHT31;55632;51.962;16.116;2023-06-22T21:04:31;23.99;52.17
68648;SHT31;55632;51.962;16.116;2023-06-22T21:09:32;23.95;52.76
68648;SHT31;55632;51.962;16.116;2023-06-22T21:14:32;23.89;53.18
68648;SHT31;55632;51.962;16.116;2023-06-22T21:19:33;23.88;53.61
68648;SHT31;55632;51.962;16.116;2023-06-22T21:24:34;23.88;53.55
68648;SHT31;55632;51.962;16.116;2023-06-22T21:29:35;23.90;53.41
68648;SHT31;55632;51.962;16.116;2023-06-22T21:34:36;23.92;53.19
68648;SHT31;55632;51.962;16.116;2023-06-22T21:39:36;23.95;52.97
68648;SHT31;55632;51.962;16.116;2023-06-22T21:44:37;23.98;52.62
68648;SHT31;55632;51.962;16.116;2023-06-22T21:49:38;24.00;52.41
68648;SHT31;55632;51.962;16.116;2023-06-22T21:54:39;24.02;51.99
68648;SHT31;55632;51.962;16.116;2023-06-22T21:59:40;24.10;51.55
68648;SHT31;55632;51.962;16.116;2023-06-22T22:04:41;24.14;51.25
68648;SHT31;55632;51.962;16.116;2023-06-22T22:09:42;24.20;50.66
68648;SHT31;55632;51.962;16.116;2023-06-22T22:14:44;24.26;50.15
68648;SHT31;55632;51.962;16.116;2023-06-22T22:19:47;24.26;49.71
68648;SHT31;55632;51.962;16.116;2023-06-22T22:24:48;24.30;49.50
68648;SHT31;55632;51.962;16.116;2023-06-22T22:29:51;24.31;49.39
68648;SHT31;55632;51.962;16.116;2023-06-22T22:34:52;24.33;49.34
68648;SHT31;55632;51.962;16.116;2023-06-22T22:39:53;24.31;49.26
68648;SHT31;55632;51.962;16.116;2023-06-22T22:44:55;24.34;49.32
68648;SHT31;55632;51.962;16.116;2023-06-22T22:49:56;24.36;49.11
68648;SHT31;55632;51.962;16.116;2023-06-22T22:54:57;24.31;48.85
68648;SHT31;55632;51.962;16.116;2023-06-22T23:00:01;24.30;48.62
68648;SHT31;55632;51.962;16.116;2023-06-22T23:05:03;24.30;48.33
68648;SHT31;55632;51.962;16.116;2023-06-22T23:10:08;24.28;48.11
68648;SHT31;55632;51.962;16.116;2023-06-22T23:15:09;24.26;48.03
68648;SHT31;55632;51.962;16.116;2023-06-22T23:20:10;24.26;47.96
68648;SHT31;55632;51.962;16.116;2023-06-22T23:25:19;24.23;47.98
68648;SHT31;55632;51.962;16.116;2023-06-22T23:30:20;24.21;47.99
68648;SHT31;55632;51.962;16.116;2023-06-22T23:35:22;24.19;48.04
68648;SHT31;55632;51.962;16.116;2023-06-22T23:40:22;24.14;48.20
68648;SHT31;55632;51.962;16.116;2023-06-22T23:45:26;24.10;48.38
68648;SHT31;55632;51.962;16.116;2023-06-22T23:50:27;24.08;48.46
68648;SHT31;55632;51.962;16.116;2023-06-22T23:55:28;23.99;49.87
